createdAt,value
2019-03-11T00:00:08.581Z,53.90
2019-03-11T00:02:37.168Z,53.10
2019-03-11T00:05:07.910Z,53.20
2019-03-11T00:07:36.361Z,53.00
2019-03-11T00:10:06.837Z,52.30
2019-03-11T00:12:35.433Z,52.20
2019-03-11T00:15:04.763Z,51.60
2019-03-11T00:17:33.301Z,51.60
2019-03-11T00:20:01.766Z,51.50
2019-03-11T00:22:30.227Z,51.80
2019-03-11T00:24:58.651Z,51.70
2019-03-11T00:27:27.103Z,51.70
2019-03-11T00:29:55.599Z,51.70
2019-03-11T00:32:24.094Z,51.60
2019-03-11T00:34:52.545Z,51.50
2019-03-11T00:37:20.994Z,51.50
2019-03-11T00:39:49.455Z,51.50
2019-03-11T00:42:17.900Z,51.60
2019-03-11T00:44:46.317Z,51.20
2019-03-11T00:47:14.838Z,51.10
2019-03-11T00:49:43.309Z,51.00
2019-03-11T00:52:11.753Z,51.00
2019-03-11T00:54:40.193Z,51.20
2019-03-11T00:57:08.636Z,51.00
2019-03-11T00:59:37.077Z,51.00
2019-03-11T01:02:05.812Z,51.00
2019-03-11T01:04:34.240Z,50.80
2019-03-11T01:07:02.694Z,51.10
2019-03-11T01:09:31.132Z,51.00
2019-03-11T01:11:59.637Z,51.00
2019-03-11T01:14:28.095Z,51.10
2019-03-11T01:16:56.517Z,51.30
2019-03-11T01:19:25.025Z,51.00
2019-03-11T01:21:53.426Z,51.10
2019-03-11T01:24:21.926Z,51.00
2019-03-11T01:26:50.348Z,51.00
2019-03-11T01:29:18.767Z,50.70
2019-03-11T01:31:47.209Z,51.20
2019-03-11T01:34:15.657Z,51.30
2019-03-11T01:36:44.060Z,51.10
2019-03-11T01:39:12.485Z,51.30
2019-03-11T01:41:40.922Z,51.30
2019-03-11T01:44:09.438Z,51.30
2019-03-11T01:46:37.879Z,51.40
2019-03-11T01:49:06.308Z,51.30
2019-03-11T01:51:34.797Z,51.60
2019-03-11T01:54:03.216Z,51.30
2019-03-11T01:56:31.650Z,51.50
2019-03-11T01:59:00.058Z,51.50
2019-03-11T02:01:28.517Z,51.40
2019-03-11T02:03:57.019Z,52.10
2019-03-11T02:06:25.465Z,51.50
2019-03-11T02:08:53.915Z,51.60
2019-03-11T02:11:22.390Z,51.70
2019-03-11T02:13:50.827Z,51.30
2019-03-11T02:16:19.257Z,51.50
2019-03-11T02:18:47.682Z,51.50
2019-03-11T02:21:16.134Z,51.60
2019-03-11T02:23:44.556Z,51.50
2019-03-11T02:26:12.993Z,51.70
2019-03-11T02:28:41.438Z,51.70
2019-03-11T02:31:09.870Z,51.80
2019-03-11T02:33:38.362Z,51.70
2019-03-11T02:36:06.876Z,51.60
2019-03-11T02:38:35.321Z,51.70
2019-03-11T02:41:03.782Z,51.80
2019-03-11T02:43:32.264Z,51.90
2019-03-11T02:46:00.709Z,51.90
2019-03-11T02:48:29.113Z,52.10
2019-03-11T02:50:57.561Z,52.40
2019-03-11T02:53:26.053Z,52.20
2019-03-11T02:55:54.477Z,52.40
2019-03-11T02:58:22.942Z,52.70
2019-03-11T03:00:53.075Z,52.90
2019-03-11T03:03:23.134Z,52.90
2019-03-11T03:05:53.208Z,52.90
2019-03-11T03:08:21.726Z,53.20
2019-03-11T03:10:50.178Z,53.20
2019-03-11T03:13:18.755Z,53.40
2019-03-11T03:15:47.176Z,53.50
2019-03-11T03:18:15.709Z,53.60
2019-03-11T03:20:44.218Z,53.80
2019-03-11T03:23:12.747Z,53.90
2019-03-11T03:25:41.154Z,53.90
2019-03-11T03:28:09.816Z,54.00
2019-03-11T03:30:38.293Z,54.30
2019-03-11T03:33:06.854Z,54.30
2019-03-11T03:35:35.315Z,54.40
2019-03-11T03:38:03.757Z,54.70
2019-03-11T03:40:32.167Z,55.20
2019-03-11T03:43:00.690Z,55.50
2019-03-11T03:45:34.901Z,55.90
2019-03-11T03:48:03.447Z,56.10
2019-03-11T03:50:39.341Z,56.00
2019-03-11T03:53:08.438Z,56.00
2019-03-11T03:55:36.883Z,56.00
2019-03-11T03:58:05.494Z,56.10
2019-03-11T04:00:33.979Z,56.80
2019-03-11T04:03:02.390Z,58.00
2019-03-11T04:05:30.840Z,58.80
2019-03-11T04:07:59.498Z,61.10
2019-03-11T04:10:28.007Z,62.60
2019-03-11T04:12:56.563Z,63.60
2019-03-11T04:15:25.039Z,63.80
2019-03-11T04:17:53.623Z,64.30
2019-03-11T04:20:26.332Z,64.20
2019-03-11T04:22:54.938Z,64.30
2019-03-11T04:25:23.606Z,64.50
2019-03-11T04:27:52.256Z,65.00
2019-03-11T04:30:24.632Z,65.10
2019-03-11T04:32:53.120Z,65.40
2019-03-11T04:35:21.581Z,65.60
2019-03-11T04:37:49.976Z,65.80
2019-03-11T04:40:18.477Z,65.80
2019-03-11T04:42:46.961Z,66.10
2019-03-11T04:45:17.289Z,66.50
2019-03-11T04:47:47.308Z,66.80
2019-03-11T04:50:19.661Z,67.10
2019-03-11T04:52:48.085Z,68.50
2019-03-11T04:55:17.172Z,68.90
2019-03-11T04:57:55.765Z,69.20
2019-03-11T05:00:31.678Z,68.90
2019-03-11T05:03:00.360Z,69.10
2019-03-11T05:05:28.871Z,69.40
2019-03-11T05:07:57.332Z,69.90
2019-03-11T05:10:25.753Z,69.80
2019-03-11T05:12:54.192Z,69.90
2019-03-11T05:15:22.690Z,69.80
2019-03-11T05:17:51.306Z,69.90
2019-03-11T05:20:19.759Z,70.00
2019-03-11T05:22:49.868Z,70.40
2019-03-11T05:25:18.337Z,70.30
2019-03-11T05:27:46.809Z,70.10
2019-03-11T05:30:21.471Z,70.20
2019-03-11T05:32:49.914Z,70.60
2019-03-11T05:35:18.325Z,70.60
2019-03-11T05:37:46.825Z,70.80
2019-03-11T05:40:20.370Z,71.00
2019-03-11T05:42:48.817Z,71.20
2019-03-11T05:45:20.808Z,71.50
2019-03-11T05:47:49.319Z,71.70
2019-03-11T05:50:18.579Z,71.80
2019-03-11T05:52:47.074Z,71.70
2019-03-11T05:55:15.732Z,71.70
2019-03-11T05:57:44.379Z,71.20
2019-03-11T06:00:19.369Z,69.80
2019-03-11T06:02:47.814Z,68.90
2019-03-11T06:05:16.229Z,67.20
2019-03-11T06:07:44.649Z,67.10
2019-03-11T06:10:14.875Z,65.90
2019-03-11T06:12:43.421Z,65.10
2019-03-11T06:15:15.214Z,64.00
2019-03-11T06:17:43.907Z,63.90
2019-03-11T06:20:16.534Z,63.90
2019-03-11T06:22:44.950Z,64.30
2019-03-11T06:25:13.437Z,64.20
2019-03-11T06:27:41.845Z,64.20
2019-03-11T06:30:11.008Z,64.40
2019-03-11T06:32:39.423Z,64.80
2019-03-11T06:35:08.008Z,65.00
2019-03-11T06:37:36.414Z,65.20
2019-03-11T06:40:12.151Z,65.20
2019-03-11T06:42:40.626Z,65.40
2019-03-11T06:45:13.346Z,65.50
2019-03-11T06:47:41.816Z,65.60
2019-03-11T06:50:12.325Z,65.70
2019-03-11T06:52:40.833Z,64.80
2019-03-11T06:55:10.414Z,64.90
2019-03-11T06:57:38.822Z,64.60
2019-03-11T07:00:18.047Z,64.70
2019-03-11T07:02:46.465Z,64.90
2019-03-11T07:05:20.388Z,64.80
2019-03-11T07:07:45.193Z,65.10
2019-03-11T07:10:17.107Z,65.10
2019-03-11T07:12:45.666Z,64.80
2019-03-11T07:15:15.741Z,64.70
2019-03-11T07:17:44.547Z,64.70
2019-03-11T07:20:15.463Z,63.80
2019-03-11T07:22:44.109Z,63.50
2019-03-11T07:25:12.573Z,63.20
2019-03-11T07:27:41.076Z,63.10
2019-03-11T07:30:17.441Z,62.30
2019-03-11T07:32:45.893Z,62.10
2019-03-11T07:35:14.657Z,61.10
2019-03-11T07:37:43.221Z,60.70
2019-03-11T07:40:13.599Z,60.80
2019-03-11T07:42:42.077Z,60.90
2019-03-11T07:45:12.514Z,60.00
2019-03-11T07:47:40.977Z,66.70
2019-03-11T07:50:10.640Z,70.40
2019-03-11T07:52:39.065Z,71.30
2019-03-11T07:55:10.001Z,71.70
2019-03-11T07:57:38.466Z,71.40
2019-03-11T08:00:17.575Z,71.20
2019-03-11T08:02:46.069Z,71.40
2019-03-11T08:05:14.546Z,71.60
2019-03-11T08:07:43.002Z,72.60
2019-03-11T08:10:18.670Z,74.10
2019-03-11T08:12:47.103Z,75.00
2019-03-11T08:15:16.270Z,75.70
2019-03-11T08:17:44.728Z,76.50
2019-03-11T08:20:16.773Z,77.30
2019-03-11T08:22:45.266Z,78.50
2019-03-11T08:25:16.811Z,80.00
2019-03-11T08:27:45.477Z,81.20
2019-03-11T08:30:22.905Z,82.40
2019-03-11T08:32:51.382Z,83.40
2019-03-11T08:35:19.836Z,85.00
2019-03-11T08:37:48.342Z,85.10
2019-03-11T08:40:20.513Z,84.40
2019-03-11T08:42:49.055Z,83.40
2019-03-11T08:45:18.538Z,83.50
2019-03-11T08:47:47.093Z,83.10
2019-03-11T08:50:17.141Z,82.90
2019-03-11T08:52:45.707Z,82.00
2019-03-11T08:55:14.495Z,81.90
2019-03-11T08:57:42.993Z,79.80
2019-03-11T09:00:16.129Z,78.20
2019-03-11T09:02:44.549Z,77.10
2019-03-11T09:05:13.236Z,76.00
2019-03-11T09:07:41.670Z,73.00
2019-03-11T09:10:14.985Z,71.00
2019-03-11T09:12:43.397Z,72.00
2019-03-11T09:15:19.101Z,71.40
2019-03-11T09:17:47.814Z,70.40
2019-03-11T09:20:17.169Z,70.20
2019-03-11T09:22:45.586Z,69.50
2019-03-11T09:25:16.038Z,67.10
2019-03-11T09:27:44.477Z,68.00
2019-03-11T09:30:19.987Z,67.00
2019-03-11T09:32:48.534Z,65.90
2019-03-11T09:35:17.116Z,65.00
2019-03-11T09:37:45.533Z,64.10
2019-03-11T09:40:18.549Z,64.00
2019-03-11T09:42:47.009Z,64.00
2019-03-11T09:45:18.992Z,62.80
2019-03-11T09:47:47.764Z,63.60
2019-03-11T09:50:16.741Z,64.20
2019-03-11T09:52:45.313Z,64.00
2019-03-11T09:55:15.955Z,62.60
2019-03-11T09:57:44.453Z,62.20
2019-03-11T10:00:18.204Z,61.80
2019-03-11T10:02:52.553Z,60.70
2019-03-11T10:05:17.001Z,60.70
2019-03-11T10:07:45.611Z,61.00
2019-03-11T10:10:16.426Z,61.50
2019-03-11T10:12:44.847Z,62.20
2019-03-11T10:15:15.864Z,61.50
2019-03-11T10:17:44.400Z,60.20
2019-03-11T10:20:15.229Z,58.60
2019-03-11T10:22:43.674Z,59.50
2019-03-11T10:25:13.489Z,58.40
2019-03-11T10:27:42.018Z,58.90
2019-03-11T10:30:21.224Z,57.00
2019-03-11T10:32:49.978Z,57.40
2019-03-11T10:35:36.875Z,56.30
2019-03-11T10:37:51.798Z,56.10
2019-03-11T10:40:33.426Z,56.60
2019-03-11T10:43:01.853Z,56.80
2019-03-11T10:45:32.231Z,57.00
2019-03-11T10:48:00.581Z,57.90
2019-03-11T10:50:29.145Z,58.40
2019-03-11T10:52:57.655Z,58.10
2019-03-11T10:55:27.327Z,56.70
2019-03-11T10:57:55.837Z,56.10
2019-03-11T11:00:26.996Z,56.70
2019-03-11T11:02:55.602Z,56.10
2019-03-11T11:05:24.127Z,55.50
2019-03-11T11:07:52.626Z,56.40
2019-03-11T11:10:21.411Z,55.80
2019-03-11T11:12:49.831Z,55.50
2019-03-11T11:15:20.673Z,55.00
2019-03-11T11:17:49.167Z,55.30
2019-03-11T11:20:19.353Z,56.10
2019-03-11T11:22:47.913Z,58.40
2019-03-11T11:25:18.938Z,60.00
2019-03-11T11:27:47.426Z,61.50
2019-03-11T11:30:18.581Z,61.50
2019-03-11T11:32:47.070Z,60.30
2019-03-11T11:35:16.670Z,59.70
2019-03-11T11:37:45.156Z,59.60
2019-03-11T11:40:16.611Z,60.10
2019-03-11T11:42:45.042Z,60.50
2019-03-11T11:45:16.032Z,59.80
2019-03-11T11:47:44.544Z,58.80
2019-03-11T11:50:18.682Z,58.90
2019-03-11T11:52:47.101Z,58.40
2019-03-11T11:55:16.884Z,57.40
2019-03-11T11:57:45.477Z,56.30
2019-03-11T12:00:29.444Z,54.40
2019-03-11T12:02:57.925Z,53.60
2019-03-11T12:05:26.618Z,51.60
2019-03-11T12:07:55.181Z,51.90
2019-03-11T12:10:31.434Z,49.90
2019-03-11T12:12:59.860Z,49.90
2019-03-11T12:15:28.305Z,50.40
2019-03-11T12:17:56.757Z,48.80
2019-03-11T12:20:27.280Z,50.30
2019-03-11T12:22:55.776Z,52.40
2019-03-11T12:25:24.283Z,53.00
2019-03-11T12:27:54.424Z,52.30
2019-03-11T12:30:33.260Z,51.90
2019-03-11T12:33:01.707Z,51.40
2019-03-11T12:35:30.287Z,49.00
2019-03-11T12:37:58.772Z,49.00
2019-03-11T12:40:27.318Z,49.30
2019-03-11T12:42:55.862Z,47.00
2019-03-11T12:45:25.192Z,47.80
2019-03-11T12:47:53.705Z,47.20
2019-03-11T12:50:23.172Z,46.10
2019-03-11T12:52:51.611Z,45.40
2019-03-11T12:55:21.616Z,45.60
2019-03-11T12:57:50.448Z,45.00
2019-03-11T13:00:22.745Z,45.50
2019-03-11T13:02:51.420Z,45.50
2019-03-11T13:05:19.984Z,45.00
2019-03-11T13:07:48.564Z,44.50
2019-03-11T13:10:27.981Z,45.70
2019-03-11T13:12:56.556Z,44.70
2019-03-11T13:15:25.038Z,45.10
2019-03-11T13:17:53.627Z,45.20
2019-03-11T13:20:31.171Z,44.00
2019-03-11T13:23:00.060Z,45.00
2019-03-11T13:25:28.624Z,45.20
2019-03-11T13:27:57.207Z,44.40
2019-03-11T13:30:25.686Z,42.10
2019-03-11T13:32:54.125Z,42.20
2019-03-11T13:35:22.558Z,43.20
2019-03-11T13:37:50.960Z,42.70
2019-03-11T13:40:19.460Z,42.50
2019-03-11T13:42:47.972Z,42.50
2019-03-11T13:45:20.236Z,42.90
2019-03-11T13:47:48.841Z,42.70
2019-03-11T13:50:18.442Z,42.70
2019-03-11T13:52:47.307Z,43.10
2019-03-11T13:55:17.155Z,43.80
2019-03-11T13:57:45.811Z,43.60
2019-03-11T14:00:19.253Z,43.10
2019-03-11T14:02:47.739Z,43.90
2019-03-11T14:05:16.260Z,44.20
2019-03-11T14:07:44.924Z,44.50
2019-03-11T14:10:14.617Z,44.20
2019-03-11T14:12:43.117Z,44.20
2019-03-11T14:15:14.310Z,43.90
2019-03-11T14:17:42.735Z,43.40
2019-03-11T14:20:12.592Z,43.90
2019-03-11T14:22:41.036Z,44.00
2019-03-11T14:25:10.800Z,44.10
2019-03-11T14:27:39.315Z,44.20
2019-03-11T14:30:18.236Z,44.00
2019-03-11T14:32:46.737Z,43.70
2019-03-11T14:35:15.255Z,44.60
2019-03-11T14:37:43.774Z,44.10
2019-03-11T14:40:18.539Z,44.80
2019-03-11T14:42:47.119Z,45.10
2019-03-11T14:45:19.741Z,46.20
2019-03-11T14:47:48.209Z,48.00
2019-03-11T14:50:17.858Z,51.60
2019-03-11T14:52:46.354Z,53.70
2019-03-11T14:55:15.037Z,54.90
2019-03-11T14:57:43.609Z,56.00
2019-03-11T15:00:22.496Z,55.60
2019-03-11T15:02:51.116Z,55.10
2019-03-11T15:05:20.374Z,53.90
2019-03-11T15:07:49.017Z,53.70
2019-03-11T15:10:19.075Z,53.30
2019-03-11T15:12:48.055Z,52.30
2019-03-11T15:15:19.625Z,52.50
2019-03-11T15:17:48.114Z,52.80
2019-03-11T15:20:16.661Z,52.80
2019-03-11T15:22:45.247Z,52.50
2019-03-11T15:25:15.292Z,52.10
2019-03-11T15:27:43.972Z,50.30
2019-03-11T15:30:20.344Z,50.20
2019-03-11T15:32:48.879Z,49.80
2019-03-11T15:35:17.425Z,49.40
2019-03-11T15:37:45.983Z,49.30
2019-03-11T15:40:15.585Z,48.80
2019-03-11T15:42:44.118Z,49.10
2019-03-11T15:45:16.297Z,48.90
2019-03-11T15:47:44.859Z,49.10
2019-03-11T15:50:15.929Z,49.20
2019-03-11T15:52:44.485Z,50.20
2019-03-11T15:55:14.974Z,51.40
2019-03-11T15:57:43.411Z,51.80
2019-03-11T16:00:19.920Z,52.10
2019-03-11T16:02:48.517Z,54.20
2019-03-11T16:05:24.483Z,58.70
2019-03-11T16:07:53.173Z,63.00
2019-03-11T16:10:21.865Z,65.40
2019-03-11T16:12:50.429Z,66.80
2019-03-11T16:15:19.148Z,67.80
2019-03-11T16:17:47.639Z,69.00
2019-03-11T16:20:24.357Z,68.90
2019-03-11T16:22:52.825Z,68.90
2019-03-11T16:25:21.443Z,69.00
2019-03-11T16:27:49.857Z,69.40
2019-03-11T16:30:22.141Z,69.20
2019-03-11T16:32:59.227Z,68.90
2019-03-11T16:35:22.960Z,68.90
2019-03-11T16:37:51.398Z,68.50
2019-03-11T16:40:20.167Z,68.50
2019-03-11T16:42:48.675Z,68.20
2019-03-11T16:45:18.697Z,67.80
2019-03-11T16:47:48.152Z,67.70
2019-03-11T16:50:24.590Z,67.60
2019-03-11T16:52:53.021Z,67.50
2019-03-11T16:55:27.781Z,67.20
2019-03-11T16:57:56.295Z,67.10
2019-03-11T17:00:26.397Z,66.60
2019-03-11T17:02:54.898Z,66.00
2019-03-11T17:05:23.379Z,65.70
2019-03-11T17:07:51.830Z,65.00
2019-03-11T17:10:21.357Z,64.50
2019-03-11T17:12:49.918Z,64.00
2019-03-11T17:15:18.551Z,63.80
2019-03-11T17:17:46.992Z,63.60
2019-03-11T17:20:19.586Z,62.60
2019-03-11T17:22:48.168Z,61.70
2019-03-11T17:25:16.689Z,61.00
2019-03-11T17:27:45.296Z,60.70
2019-03-11T17:30:18.534Z,59.40
2019-03-11T17:32:47.241Z,59.00
2019-03-11T17:35:16.323Z,58.00
2019-03-11T17:37:45.145Z,57.80
2019-03-11T17:40:18.646Z,57.30
2019-03-11T17:42:47.272Z,57.10
2019-03-11T17:45:16.280Z,57.20
2019-03-11T17:47:44.944Z,57.10
2019-03-11T17:50:21.191Z,56.90
2019-03-11T17:52:50.058Z,56.40
2019-03-11T17:55:19.144Z,56.60
2019-03-11T17:57:48.144Z,56.30
2019-03-11T18:00:25.944Z,56.30
2019-03-11T18:02:54.779Z,56.50
2019-03-11T18:05:23.473Z,56.30
2019-03-11T18:07:52.165Z,56.30
2019-03-11T18:10:20.819Z,56.10
2019-03-11T18:12:49.431Z,55.90
2019-03-11T18:15:18.078Z,56.00
2019-03-11T18:17:46.642Z,55.90
2019-03-11T18:20:18.848Z,55.80
2019-03-11T18:22:47.603Z,55.80
2019-03-11T18:25:17.019Z,55.90
2019-03-11T18:27:45.462Z,55.80
2019-03-11T18:30:21.249Z,55.80
2019-03-11T18:32:49.752Z,55.80
2019-03-11T18:35:18.399Z,55.40
2019-03-11T18:37:47.010Z,55.70
2019-03-11T18:40:17.090Z,55.90
2019-03-11T18:42:45.620Z,55.80
2019-03-11T18:45:14.718Z,55.70
2019-03-11T18:47:43.179Z,55.70
2019-03-11T18:50:13.532Z,55.70
2019-03-11T18:52:42.076Z,55.40
2019-03-11T18:55:11.433Z,55.30
2019-03-11T18:57:39.857Z,55.50
2019-03-11T19:00:14.373Z,55.60
2019-03-11T19:02:42.878Z,55.20
2019-03-11T19:05:13.747Z,55.10
2019-03-11T19:07:42.433Z,55.30
2019-03-11T19:10:15.295Z,55.50
2019-03-11T19:12:44.058Z,55.40
2019-03-11T19:15:21.546Z,55.40
2019-03-11T19:17:50.214Z,55.20
2019-03-11T19:20:22.892Z,55.30
2019-03-11T19:22:51.596Z,55.40
2019-03-11T19:25:20.154Z,55.50
2019-03-11T19:27:48.665Z,55.60
2019-03-11T19:30:25.602Z,55.40
2019-03-11T19:32:54.245Z,55.30
2019-03-11T19:35:22.966Z,55.20
2019-03-11T19:37:51.641Z,55.20
2019-03-11T19:40:22.119Z,55.10
2019-03-11T19:42:50.852Z,55.40
2019-03-11T19:45:19.569Z,55.20
2019-03-11T19:47:48.095Z,55.30
2019-03-11T19:50:17.648Z,55.40
2019-03-11T19:52:57.878Z,55.10
2019-03-11T19:55:16.676Z,55.00
2019-03-11T19:57:45.439Z,55.00
2019-03-11T20:00:17.121Z,55.10
2019-03-11T20:02:45.730Z,54.90
2019-03-11T20:05:25.991Z,54.80
2019-03-11T20:07:54.695Z,54.80
2019-03-11T20:10:23.467Z,55.00
2019-03-11T20:12:52.178Z,54.80
2019-03-11T20:15:20.983Z,54.60
2019-03-11T20:17:49.915Z,54.80
2019-03-11T20:20:19.257Z,54.70
2019-03-11T20:22:49.287Z,54.80
2019-03-11T20:25:23.621Z,54.90
2019-03-11T20:27:52.231Z,55.00
2019-03-11T20:30:22.437Z,54.90
2019-03-11T20:32:50.952Z,55.00
2019-03-11T20:35:19.625Z,55.00
2019-03-11T20:37:48.247Z,55.00
2019-03-11T20:40:16.921Z,54.70
2019-03-11T20:42:45.544Z,54.90
2019-03-11T20:45:16.336Z,55.20
2019-03-11T20:47:44.949Z,55.00
2019-03-11T20:50:17.225Z,54.70
2019-03-11T20:52:45.804Z,54.80
2019-03-11T20:55:20.123Z,55.00
2019-03-11T20:57:48.747Z,55.00
2019-03-11T21:00:22.975Z,55.10
2019-03-11T21:02:51.754Z,55.00
2019-03-11T21:05:38.007Z,55.10
2019-03-11T21:08:06.674Z,55.10
2019-03-11T21:10:35.189Z,55.00
2019-03-11T21:13:04.181Z,55.00
2019-03-11T21:15:32.791Z,55.10
2019-03-11T21:18:01.309Z,55.00
2019-03-11T21:20:29.874Z,54.80
2019-03-11T21:22:58.419Z,54.90
2019-03-11T21:25:26.912Z,54.80
2019-03-11T21:27:55.500Z,55.00
2019-03-11T21:30:24.837Z,54.80
2019-03-11T21:32:53.673Z,54.90
2019-03-11T21:35:22.347Z,54.90
2019-03-11T21:37:51.051Z,55.00
2019-03-11T21:40:20.894Z,55.20
2019-03-11T21:42:49.671Z,55.00
2019-03-11T21:45:18.433Z,55.20
2019-03-11T21:47:47.186Z,55.30
2019-03-11T21:50:23.772Z,55.30
2019-03-11T21:52:52.308Z,55.20
2019-03-11T21:55:20.962Z,55.90
2019-03-11T21:57:49.621Z,55.30
2019-03-11T22:00:33.926Z,55.40
2019-03-11T22:02:53.350Z,55.40
2019-03-11T22:05:21.859Z,55.30
2019-03-11T22:07:50.448Z,55.30
2019-03-11T22:10:19.378Z,55.10
2019-03-11T22:12:47.988Z,55.30
2019-03-11T22:15:19.477Z,55.40
2019-03-11T22:17:48.017Z,55.60
2019-03-11T22:20:17.301Z,55.50
2019-03-11T22:22:45.693Z,55.60
2019-03-11T22:25:23.231Z,55.70
2019-03-11T22:27:51.689Z,55.90
2019-03-11T22:30:24.577Z,56.00
2019-03-11T22:32:53.199Z,56.10
2019-03-11T22:35:21.757Z,56.30
2019-03-11T22:37:50.338Z,56.30
2019-03-11T22:40:19.651Z,56.40
2019-03-11T22:42:48.155Z,56.70
2019-03-11T22:45:20.277Z,56.90
2019-03-11T22:47:49.630Z,57.00
2019-03-11T22:50:18.355Z,57.80
2019-03-11T22:52:46.885Z,57.30
2019-03-11T22:55:15.412Z,57.40
2019-03-11T22:57:43.904Z,57.50
2019-03-11T23:00:28.925Z,57.50
2019-03-11T23:02:57.454Z,57.60
2019-03-11T23:05:25.898Z,57.60
2019-03-11T23:07:54.324Z,57.70
2019-03-11T23:10:22.869Z,57.80
2019-03-11T23:12:51.300Z,57.70
2019-03-11T23:15:19.705Z,57.80
2019-03-11T23:17:48.328Z,57.80
2019-03-11T23:20:16.769Z,57.80
2019-03-11T23:22:45.280Z,57.80
2019-03-11T23:25:13.843Z,58.00
2019-03-11T23:27:42.316Z,58.10
2019-03-11T23:30:13.046Z,58.20
2019-03-11T23:32:41.521Z,58.40
2019-03-11T23:35:10.127Z,58.80
2019-03-11T23:37:38.647Z,58.80
2019-03-11T23:40:08.909Z,58.90
2019-03-11T23:42:37.438Z,59.00
2019-03-11T23:45:07.885Z,59.10
2019-03-11T23:47:36.412Z,59.20
2019-03-11T23:50:06.916Z,59.30
2019-03-11T23:52:35.344Z,59.30
2019-03-11T23:55:08.269Z,59.20
2019-03-11T23:57:36.708Z,59.20
